Minneapolis, Minnesota
Traffic Map
Current Weather Conditions
Minneapolis, Minnesota
Scattered Clouds
Scattered Clouds
26°
Feels Like: 26°
Wind Chill: 26° Ceiling: Unl
Heat Index: 26° Visibility: 10mi
Dew Point: 10° Wind: 10mph
Humidity: 36% Direction: 290° (WNW)
Pressure: 29.97in Gusts: 0mph
Raw Report DataKMSP 042353Z 29009KT 10SM FEW070 SCT300 26/10 A2997 RMK AO2 SLP146 T02610100 10278 20256 55001
Traffic Incident Summary
Active as of:
Severity:
Category:
InformationThere was an issue retrieving the traffic information for this location. Please try a different location or try again shortly.
Advertisements
Track Severe Weather on mobile